sensor_id;sensor_type;location;lat;lon;timestamp;P1;durP1;ratioP1;P2;durP2;ratioP2
72557;SDS011;60583;50.094;8.748;2023-08-31T00:00:41;5.38;;;2.05;;
72557;SDS011;60583;50.094;8.748;2023-08-31T00:03:07;4.45;;;2.42;;
72557;SDS011;60583;50.094;8.748;2023-08-31T00:05:36;5.22;;;2.30;;
72557;SDS011;60583;50.094;8.748;2023-08-31T00:08:02;4.45;;;2.75;;
72557;SDS011;60583;50.094;8.748;2023-08-31T00:10:28;5.22;;;2.40;;
72557;SDS011;60583;50.094;8.748;2023-08-31T00:12:54;5.25;;;2.75;;
72557;SDS011;60583;50.094;8.748;2023-08-31T00:15:20;5.10;;;2.35;;
72557;SDS011;60583;50.094;8.748;2023-08-31T00:17:45;5.35;;;2.45;;
72557;SDS011;60583;50.094;8.748;2023-08-31T00:20:11;4.35;;;2.33;;
72557;SDS011;60583;50.094;8.748;2023-08-31T00:22:39;4.82;;;2.40;;
72557;SDS011;60583;50.094;8.748;2023-08-31T00:25:04;4.78;;;2.30;;
72557;SDS011;60583;50.094;8.748;2023-08-31T00:27:34;4.43;;;2.20;;
72557;SDS011;60583;50.094;8.748;2023-08-31T00:30:03;5.85;;;2.42;;
72557;SDS011;60583;50.094;8.748;2023-08-31T00:32:33;5.72;;;2.80;;
72557;SDS011;60583;50.094;8.748;2023-08-31T00:34:59;5.22;;;2.72;;
72557;SDS011;60583;50.094;8.748;2023-08-31T00:37:25;5.65;;;2.80;;
72557;SDS011;60583;50.094;8.748;2023-08-31T00:39:50;4.63;;;2.45;;
72557;SDS011;60583;50.094;8.748;2023-08-31T00:42:17;5.25;;;3.03;;
72557;SDS011;60583;50.094;8.748;2023-08-31T00:44:43;5.60;;;2.65;;
72557;SDS011;60583;50.094;8.748;2023-08-31T00:47:12;6.10;;;2.58;;
72557;SDS011;60583;50.094;8.748;2023-08-31T00:49:38;5.40;;;2.40;;
72557;SDS011;60583;50.094;8.748;2023-08-31T00:52:04;4.93;;;2.38;;
72557;SDS011;60583;50.094;8.748;2023-08-31T00:54:30;6.00;;;2.88;;
72557;SDS011;60583;50.094;8.748;2023-08-31T00:56:56;5.35;;;2.60;;
72557;SDS011;60583;50.094;8.748;2023-08-31T00:59:22;4.57;;;2.58;;
72557;SDS011;60583;50.094;8.748;2023-08-31T01:07:17;5.68;;;3.13;;
72557;SDS011;60583;50.094;8.748;2023-08-31T01:09:54;5.95;;;3.00;;
72557;SDS011;60583;50.094;8.748;2023-08-31T01:12:22;6.15;;;2.47;;
72557;SDS011;60583;50.094;8.748;2023-08-31T01:17:33;7.60;;;3.03;;
72557;SDS011;60583;50.094;8.748;2023-08-31T01:20:07;5.15;;;2.70;;
72557;SDS011;60583;50.094;8.748;2023-08-31T01:22:38;5.80;;;2.90;;
72557;SDS011;60583;50.094;8.748;2023-08-31T01:25:08;5.30;;;2.80;;
72557;SDS011;60583;50.094;8.748;2023-08-31T01:27:34;6.15;;;2.75;;
72557;SDS011;60583;50.094;8.748;2023-08-31T01:30:02;4.95;;;3.10;;
72557;SDS011;60583;50.094;8.748;2023-08-31T01:32:29;7.28;;;3.13;;
72557;SDS011;60583;50.094;8.748;2023-08-31T01:34:54;6.20;;;2.90;;
72557;SDS011;60583;50.094;8.748;2023-08-31T01:40:52;5.60;;;3.08;;
72557;SDS011;60583;50.094;8.748;2023-08-31T01:43:03;6.28;;;2.95;;
72557;SDS011;60583;50.094;8.748;2023-08-31T01:45:31;5.63;;;2.88;;
72557;SDS011;60583;50.094;8.748;2023-08-31T01:48:00;6.70;;;3.17;;
72557;SDS011;60583;50.094;8.748;2023-08-31T01:50:26;7.32;;;3.55;;
72557;SDS011;60583;50.094;8.748;2023-08-31T01:52:52;5.40;;;2.92;;
72557;SDS011;60583;50.094;8.748;2023-08-31T01:55:21;6.75;;;3.20;;
72557;SDS011;60583;50.094;8.748;2023-08-31T01:57:47;6.43;;;3.22;;
72557;SDS011;60583;50.094;8.748;2023-08-31T02:00:13;6.65;;;3.47;;
72557;SDS011;60583;50.094;8.748;2023-08-31T02:02:41;6.78;;;3.30;;
72557;SDS011;60583;50.094;8.748;2023-08-31T02:05:07;7.13;;;3.10;;
72557;SDS011;60583;50.094;8.748;2023-08-31T02:07:33;5.80;;;3.38;;
72557;SDS011;60583;50.094;8.748;2023-08-31T02:09:58;7.05;;;3.60;;
72557;SDS011;60583;50.094;8.748;2023-08-31T02:12:24;6.07;;;3.38;;
72557;SDS011;60583;50.094;8.748;2023-08-31T02:14:49;6.65;;;3.13;;
72557;SDS011;60583;50.094;8.748;2023-08-31T02:17:15;7.90;;;3.38;;
72557;SDS011;60583;50.094;8.748;2023-08-31T02:19:40;6.60;;;3.08;;
72557;SDS011;60583;50.094;8.748;2023-08-31T02:22:06;5.90;;;4.00;;
72557;SDS011;60583;50.094;8.748;2023-08-31T02:24:31;7.68;;;3.70;;
72557;SDS011;60583;50.094;8.748;2023-08-31T02:26:56;8.10;;;4.18;;
72557;SDS011;60583;50.094;8.748;2023-08-31T02:29:22;5.95;;;3.22;;
72557;SDS011;60583;50.094;8.748;2023-08-31T02:31:47;8.40;;;3.85;;
72557;SDS011;60583;50.094;8.748;2023-08-31T02:34:13;8.43;;;3.40;;
72557;SDS011;60583;50.094;8.748;2023-08-31T02:36:38;7.05;;;3.75;;
72557;SDS011;60583;50.094;8.748;2023-08-31T02:39:04;6.85;;;4.00;;
72557;SDS011;60583;50.094;8.748;2023-08-31T02:41:29;7.13;;;4.40;;
72557;SDS011;60583;50.094;8.748;2023-08-31T02:43:55;5.72;;;3.40;;
72557;SDS011;60583;50.094;8.748;2023-08-31T02:46:20;6.95;;;3.53;;
72557;SDS011;60583;50.094;8.748;2023-08-31T02:48:46;7.55;;;3.70;;
72557;SDS011;60583;50.094;8.748;2023-08-31T02:51:11;7.43;;;3.83;;
72557;SDS011;60583;50.094;8.748;2023-08-31T02:53:37;9.68;;;4.10;;
72557;SDS011;60583;50.094;8.748;2023-08-31T02:56:02;6.65;;;3.70;;
72557;SDS011;60583;50.094;8.748;2023-08-31T02:58:28;7.55;;;3.97;;
72557;SDS011;60583;50.094;8.748;2023-08-31T03:00:54;9.13;;;4.20;;
72557;SDS011;60583;50.094;8.748;2023-08-31T03:03:20;5.88;;;3.47;;
72557;SDS011;60583;50.094;8.748;2023-08-31T03:05:46;7.10;;;4.20;;
72557;SDS011;60583;50.094;8.748;2023-08-31T03:08:12;7.72;;;3.80;;
72557;SDS011;60583;50.094;8.748;2023-08-31T03:10:38;6.90;;;3.92;;
72557;SDS011;60583;50.094;8.748;2023-08-31T03:13:04;7.32;;;3.88;;
72557;SDS011;60583;50.094;8.748;2023-08-31T03:15:31;6.00;;;3.85;;
72557;SDS011;60583;50.094;8.748;2023-08-31T03:17:58;6.90;;;3.70;;
72557;SDS011;60583;50.094;8.748;2023-08-31T03:20:23;7.18;;;4.18;;
72557;SDS011;60583;50.094;8.748;2023-08-31T03:22:49;8.30;;;3.78;;
72557;SDS011;60583;50.094;8.748;2023-08-31T03:25:14;6.55;;;3.97;;
72557;SDS011;60583;50.094;8.748;2023-08-31T03:27:40;7.45;;;4.05;;
72557;SDS011;60583;50.094;8.748;2023-08-31T03:30:05;7.75;;;3.80;;
72557;SDS011;60583;50.094;8.748;2023-08-31T03:32:31;7.13;;;4.53;;
72557;SDS011;60583;50.094;8.748;2023-08-31T03:34:57;9.10;;;4.07;;
72557;SDS011;60583;50.094;8.748;2023-08-31T03:37:22;7.93;;;5.10;;
72557;SDS011;60583;50.094;8.748;2023-08-31T03:39:48;8.60;;;4.07;;
72557;SDS011;60583;50.094;8.748;2023-08-31T03:42:13;8.63;;;4.13;;
72557;SDS011;60583;50.094;8.748;2023-08-31T03:44:39;9.07;;;4.50;;
72557;SDS011;60583;50.094;8.748;2023-08-31T03:47:04;8.77;;;4.82;;
72557;SDS011;60583;50.094;8.748;2023-08-31T03:49:29;8.38;;;4.30;;
72557;SDS011;60583;50.094;8.748;2023-08-31T03:51:56;10.25;;;4.78;;
72557;SDS011;60583;50.094;8.748;2023-08-31T03:54:22;8.20;;;4.40;;
72557;SDS011;60583;50.094;8.748;2023-08-31T03:56:48;10.55;;;4.65;;
72557;SDS011;60583;50.094;8.748;2023-08-31T03:59:13;7.35;;;4.25;;
72557;SDS011;60583;50.094;8.748;2023-08-31T04:01:38;7.72;;;4.45;;
72557;SDS011;60583;50.094;8.748;2023-08-31T04:04:04;6.70;;;4.30;;
72557;SDS011;60583;50.094;8.748;2023-08-31T04:06:30;14.38;;;4.90;;
72557;SDS011;60583;50.094;8.748;2023-08-31T04:08:55;8.43;;;4.10;;
72557;SDS011;60583;50.094;8.748;2023-08-31T04:11:21;8.60;;;4.15;;
72557;SDS011;60583;50.094;8.748;2023-08-31T04:13:47;6.60;;;4.00;;
72557;SDS011;60583;50.094;8.748;2023-08-31T04:16:12;10.13;;;5.15;;
72557;SDS011;60583;50.094;8.748;2023-08-31T04:18:37;9.45;;;4.75;;
72557;SDS011;60583;50.094;8.748;2023-08-31T04:21:03;8.77;;;4.40;;
72557;SDS011;60583;50.094;8.748;2023-08-31T04:23:28;7.45;;;4.78;;
72557;SDS011;60583;50.094;8.748;2023-08-31T04:25:54;7.80;;;4.57;;
72557;SDS011;60583;50.094;8.748;2023-08-31T04:28:20;7.18;;;4.82;;
72557;SDS011;60583;50.094;8.748;2023-08-31T04:30:45;7.60;;;4.53;;
72557;SDS011;60583;50.094;8.748;2023-08-31T04:33:10;9.35;;;4.85;;
72557;SDS011;60583;50.094;8.748;2023-08-31T04:35:36;8.63;;;4.88;;
72557;SDS011;60583;50.094;8.748;2023-08-31T04:38:01;10.23;;;4.80;;
72557;SDS011;60583;50.094;8.748;2023-08-31T04:40:28;8.57;;;4.95;;
72557;SDS011;60583;50.094;8.748;2023-08-31T04:42:54;10.77;;;5.68;;
72557;SDS011;60583;50.094;8.748;2023-08-31T04:45:20;8.88;;;4.70;;
72557;SDS011;60583;50.094;8.748;2023-08-31T04:47:45;8.30;;;4.22;;
72557;SDS011;60583;50.094;8.748;2023-08-31T04:50:10;8.65;;;4.53;;
72557;SDS011;60583;50.094;8.748;2023-08-31T04:52:36;9.75;;;4.90;;
72557;SDS011;60583;50.094;8.748;2023-08-31T04:55:02;8.73;;;5.60;;
72557;SDS011;60583;50.094;8.748;2023-08-31T04:57:28;8.13;;;4.68;;
72557;SDS011;60583;50.094;8.748;2023-08-31T04:59:54;10.40;;;5.55;;
72557;SDS011;60583;50.094;8.748;2023-08-31T05:02:20;9.38;;;4.80;;
72557;SDS011;60583;50.094;8.748;2023-08-31T05:04:45;11.35;;;5.72;;
72557;SDS011;60583;50.094;8.748;2023-08-31T05:07:10;8.57;;;4.85;;
72557;SDS011;60583;50.094;8.748;2023-08-31T05:09:36;8.88;;;5.18;;
72557;SDS011;60583;50.094;8.748;2023-08-31T05:12:01;10.77;;;5.85;;
72557;SDS011;60583;50.094;8.748;2023-08-31T05:14:28;9.90;;;4.90;;
72557;SDS011;60583;50.094;8.748;2023-08-31T05:16:54;10.38;;;5.65;;
72557;SDS011;60583;50.094;8.748;2023-08-31T05:19:19;9.70;;;5.80;;
72557;SDS011;60583;50.094;8.748;2023-08-31T05:21:45;9.65;;;6.03;;
72557;SDS011;60583;50.094;8.748;2023-08-31T05:24:11;10.63;;;5.88;;
72557;SDS011;60583;50.094;8.748;2023-08-31T05:26:36;10.93;;;6.50;;
72557;SDS011;60583;50.094;8.748;2023-08-31T05:29:02;10.93;;;5.72;;
72557;SDS011;60583;50.094;8.748;2023-08-31T05:31:29;10.95;;;6.10;;
72557;SDS011;60583;50.094;8.748;2023-08-31T05:33:55;10.20;;;5.97;;
72557;SDS011;60583;50.094;8.748;2023-08-31T05:36:20;9.90;;;5.82;;
72557;SDS011;60583;50.094;8.748;2023-08-31T05:38:46;12.82;;;7.18;;
72557;SDS011;60583;50.094;8.748;2023-08-31T05:41:11;12.52;;;7.60;;
72557;SDS011;60583;50.094;8.748;2023-08-31T05:43:37;11.10;;;7.15;;
72557;SDS011;60583;50.094;8.748;2023-08-31T05:46:05;13.93;;;7.35;;
72557;SDS011;60583;50.094;8.748;2023-08-31T05:48:31;13.40;;;7.65;;
72557;SDS011;60583;50.094;8.748;2023-08-31T05:50:57;11.23;;;6.72;;
72557;SDS011;60583;50.094;8.748;2023-08-31T05:53:22;14.73;;;7.80;;
72557;SDS011;60583;50.094;8.748;2023-08-31T05:55:48;12.13;;;7.55;;
72557;SDS011;60583;50.094;8.748;2023-08-31T05:58:13;12.95;;;7.57;;
72557;SDS011;60583;50.094;8.748;2023-08-31T06:00:39;14.95;;;8.27;;
72557;SDS011;60583;50.094;8.748;2023-08-31T06:03:04;16.67;;;8.68;;
72557;SDS011;60583;50.094;8.748;2023-08-31T06:05:31;13.55;;;7.40;;
72557;SDS011;60583;50.094;8.748;2023-08-31T06:07:57;13.18;;;7.65;;
72557;SDS011;60583;50.094;8.748;2023-08-31T06:10:23;12.90;;;7.82;;
72557;SDS011;60583;50.094;8.748;2023-08-31T06:12:49;13.65;;;7.05;;
72557;SDS011;60583;50.094;8.748;2023-08-31T06:15:18;10.82;;;7.13;;
72557;SDS011;60583;50.094;8.748;2023-08-31T06:17:44;11.32;;;6.22;;
72557;SDS011;60583;50.094;8.748;2023-08-31T06:20:09;12.55;;;7.03;;
72557;SDS011;60583;50.094;8.748;2023-08-31T06:22:35;10.20;;;5.63;;
72557;SDS011;60583;50.094;8.748;2023-08-31T06:25:01;10.00;;;6.10;;
72557;SDS011;60583;50.094;8.748;2023-08-31T06:27:28;12.88;;;6.30;;
72557;SDS011;60583;50.094;8.748;2023-08-31T06:29:53;13.07;;;7.00;;
72557;SDS011;60583;50.094;8.748;2023-08-31T06:32:18;10.77;;;6.45;;
72557;SDS011;60583;50.094;8.748;2023-08-31T06:34:44;12.77;;;6.60;;
72557;SDS011;60583;50.094;8.748;2023-08-31T06:37:10;8.98;;;5.90;;
72557;SDS011;60583;50.094;8.748;2023-08-31T06:39:35;9.02;;;6.18;;
72557;SDS011;60583;50.094;8.748;2023-08-31T06:42:01;9.13;;;5.78;;
72557;SDS011;60583;50.094;8.748;2023-08-31T06:44:28;9.23;;;5.15;;
72557;SDS011;60583;50.094;8.748;2023-08-31T06:46:54;10.60;;;5.78;;
72557;SDS011;60583;50.094;8.748;2023-08-31T06:49:21;9.23;;;5.68;;
72557;SDS011;60583;50.094;8.748;2023-08-31T06:51:47;10.18;;;5.43;;
72557;SDS011;60583;50.094;8.748;2023-08-31T06:54:12;7.28;;;4.53;;
72557;SDS011;60583;50.094;8.748;2023-08-31T06:56:38;8.60;;;5.00;;
72557;SDS011;60583;50.094;8.748;2023-08-31T06:59:03;9.90;;;4.13;;
72557;SDS011;60583;50.094;8.748;2023-08-31T07:01:29;8.27;;;4.32;;
72557;SDS011;60583;50.094;8.748;2023-08-31T07:03:54;12.63;;;4.68;;
72557;SDS011;60583;50.094;8.748;2023-08-31T07:06:20;7.13;;;3.90;;
72557;SDS011;60583;50.094;8.748;2023-08-31T07:08:45;8.77;;;4.47;;
72557;SDS011;60583;50.094;8.748;2023-08-31T07:11:12;7.13;;;3.97;;
72557;SDS011;60583;50.094;8.748;2023-08-31T07:13:37;6.93;;;4.60;;
72557;SDS011;60583;50.094;8.748;2023-08-31T07:16:03;8.35;;;4.75;;
72557;SDS011;60583;50.094;8.748;2023-08-31T07:18:29;7.78;;;4.60;;
72557;SDS011;60583;50.094;8.748;2023-08-31T07:20:54;7.90;;;3.85;;
72557;SDS011;60583;50.094;8.748;2023-08-31T07:23:20;8.10;;;4.28;;
72557;SDS011;60583;50.094;8.748;2023-08-31T07:25:45;10.57;;;4.43;;
72557;SDS011;60583;50.094;8.748;2023-08-31T07:28:11;9.50;;;4.07;;
72557;SDS011;60583;50.094;8.748;2023-08-31T07:30:36;8.73;;;4.38;;
72557;SDS011;60583;50.094;8.748;2023-08-31T07:33:02;9.45;;;4.00;;
72557;SDS011;60583;50.094;8.748;2023-08-31T07:35:29;8.27;;;3.75;;
72557;SDS011;60583;50.094;8.748;2023-08-31T07:37:55;6.70;;;3.42;;
72557;SDS011;60583;50.094;8.748;2023-08-31T07:40:20;7.70;;;4.15;;
72557;SDS011;60583;50.094;8.748;2023-08-31T07:42:45;6.03;;;3.47;;
72557;SDS011;60583;50.094;8.748;2023-08-31T07:45:11;9.15;;;3.90;;
72557;SDS011;60583;50.094;8.748;2023-08-31T07:47:36;8.32;;;3.53;;
72557;SDS011;60583;50.094;8.748;2023-08-31T07:50:02;7.32;;;3.92;;
72557;SDS011;60583;50.094;8.748;2023-08-31T07:52:27;5.97;;;3.88;;
72557;SDS011;60583;50.094;8.748;2023-08-31T07:54:52;6.03;;;3.50;;
72557;SDS011;60583;50.094;8.748;2023-08-31T07:57:19;7.03;;;2.88;;
72557;SDS011;60583;50.094;8.748;2023-08-31T07:59:44;6.32;;;2.90;;
72557;SDS011;60583;50.094;8.748;2023-08-31T08:02:10;8.07;;;3.33;;
72557;SDS011;60583;50.094;8.748;2023-08-31T08:04:35;7.10;;;3.05;;
72557;SDS011;60583;50.094;8.748;2023-08-31T08:07:01;6.22;;;2.80;;
72557;SDS011;60583;50.094;8.748;2023-08-31T08:09:26;8.32;;;3.20;;
72557;SDS011;60583;50.094;8.748;2023-08-31T08:11:52;9.32;;;4.80;;
72557;SDS011;60583;50.094;8.748;2023-08-31T08:14:18;6.90;;;3.50;;
72557;SDS011;60583;50.094;8.748;2023-08-31T08:16:43;6.45;;;2.80;;
72557;SDS011;60583;50.094;8.748;2023-08-31T08:19:08;5.88;;;2.83;;
72557;SDS011;60583;50.094;8.748;2023-08-31T08:21:34;6.35;;;3.10;;
72557;SDS011;60583;50.094;8.748;2023-08-31T08:23:59;4.97;;;2.92;;
72557;SDS011;60583;50.094;8.748;2023-08-31T08:26:25;9.07;;;2.83;;
72557;SDS011;60583;50.094;8.748;2023-08-31T08:28:51;6.28;;;2.42;;
72557;SDS011;60583;50.094;8.748;2023-08-31T08:31:16;6.45;;;2.75;;
72557;SDS011;60583;50.094;8.748;2023-08-31T08:33:41;4.32;;;2.65;;
72557;SDS011;60583;50.094;8.748;2023-08-31T08:36:07;5.18;;;2.60;;
72557;SDS011;60583;50.094;8.748;2023-08-31T08:38:32;6.90;;;2.40;;
72557;SDS011;60583;50.094;8.748;2023-08-31T08:40:57;5.70;;;3.03;;
72557;SDS011;60583;50.094;8.748;2023-08-31T08:43:29;5.88;;;2.22;;
72557;SDS011;60583;50.094;8.748;2023-08-31T08:45:55;5.78;;;3.05;;
72557;SDS011;60583;50.094;8.748;2023-08-31T08:48:25;7.57;;;2.67;;
72557;SDS011;60583;50.094;8.748;2023-08-31T08:50:51;6.45;;;2.50;;
72557;SDS011;60583;50.094;8.748;2023-08-31T08:53:18;5.88;;;2.60;;
72557;SDS011;60583;50.094;8.748;2023-08-31T08:55:43;5.53;;;2.28;;
72557;SDS011;60583;50.094;8.748;2023-08-31T08:58:09;6.50;;;2.75;;
72557;SDS011;60583;50.094;8.748;2023-08-31T09:00:35;5.97;;;2.05;;
72557;SDS011;60583;50.094;8.748;2023-08-31T09:03:01;5.40;;;2.63;;
72557;SDS011;60583;50.094;8.748;2023-08-31T09:05:31;5.38;;;2.40;;
72557;SDS011;60583;50.094;8.748;2023-08-31T09:08:07;5.90;;;2.35;;
72557;SDS011;60583;50.094;8.748;2023-08-31T09:10:41;5.30;;;2.60;;
72557;SDS011;60583;50.094;8.748;2023-08-31T09:13:11;5.60;;;2.65;;
72557;SDS011;60583;50.094;8.748;2023-08-31T09:15:39;7.70;;;2.22;;
72557;SDS011;60583;50.094;8.748;2023-08-31T09:18:07;7.57;;;3.00;;
72557;SDS011;60583;50.094;8.748;2023-08-31T09:20:45;5.45;;;2.58;;
72557;SDS011;60583;50.094;8.748;2023-08-31T09:23:13;6.20;;;2.38;;
72557;SDS011;60583;50.094;8.748;2023-08-31T09:25:49;4.93;;;2.53;;
72557;SDS011;60583;50.094;8.748;2023-08-31T09:28:16;4.60;;;2.30;;
72557;SDS011;60583;50.094;8.748;2023-08-31T09:30:45;8.15;;;3.17;;
72557;SDS011;60583;50.094;8.748;2023-08-31T09:33:16;5.72;;;2.50;;
72557;SDS011;60583;50.094;8.748;2023-08-31T09:38:15;5.70;;;2.42;;
72557;SDS011;60583;50.094;8.748;2023-08-31T09:40:41;4.45;;;2.20;;
72557;SDS011;60583;50.094;8.748;2023-08-31T09:43:07;5.20;;;2.35;;
72557;SDS011;60583;50.094;8.748;2023-08-31T09:45:33;6.45;;;2.20;;
72557;SDS011;60583;50.094;8.748;2023-08-31T09:48:00;5.70;;;2.45;;
72557;SDS011;60583;50.094;8.748;2023-08-31T09:50:31;5.25;;;2.35;;
72557;SDS011;60583;50.094;8.748;2023-08-31T09:53:02;5.57;;;2.38;;
72557;SDS011;60583;50.094;8.748;2023-08-31T09:55:29;5.47;;;2.50;;
72557;SDS011;60583;50.094;8.748;2023-08-31T09:57:56;5.40;;;2.15;;
72557;SDS011;60583;50.094;8.748;2023-08-31T10:00:24;5.22;;;2.00;;
72557;SDS011;60583;50.094;8.748;2023-08-31T10:02:51;6.05;;;2.05;;
72557;SDS011;60583;50.094;8.748;2023-08-31T10:05:19;5.43;;;2.28;;
72557;SDS011;60583;50.094;8.748;2023-08-31T10:07:45;5.13;;;2.10;;
72557;SDS011;60583;50.094;8.748;2023-08-31T10:10:10;5.85;;;2.53;;
72557;SDS011;60583;50.094;8.748;2023-08-31T10:12:37;6.40;;;2.25;;
72557;SDS011;60583;50.094;8.748;2023-08-31T10:15:04;4.95;;;2.28;;
72557;SDS011;60583;50.094;8.748;2023-08-31T10:17:30;4.15;;;1.63;;
72557;SDS011;60583;50.094;8.748;2023-08-31T10:19:56;5.05;;;2.28;;
72557;SDS011;60583;50.094;8.748;2023-08-31T10:22:22;5.00;;;2.10;;
72557;SDS011;60583;50.094;8.748;2023-08-31T10:24:56;7.60;;;1.90;;
72557;SDS011;60583;50.094;8.748;2023-08-31T10:27:35;4.30;;;1.80;;
72557;SDS011;60583;50.094;8.748;2023-08-31T10:35:40;5.13;;;2.22;;
72557;SDS011;60583;50.094;8.748;2023-08-31T10:38:27;4.20;;;1.83;;
72557;SDS011;60583;50.094;8.748;2023-08-31T10:43:43;4.40;;;2.10;;
72557;SDS011;60583;50.094;8.748;2023-08-31T10:46:25;4.50;;;1.80;;
72557;SDS011;60583;50.094;8.748;2023-08-31T10:49:00;5.60;;;2.40;;
72557;SDS011;60583;50.094;8.748;2023-08-31T10:51:36;5.18;;;2.00;;
72557;SDS011;60583;50.094;8.748;2023-08-31T10:54:10;5.75;;;2.58;;
72557;SDS011;60583;50.094;8.748;2023-08-31T10:56:54;4.78;;;2.10;;
72557;SDS011;60583;50.094;8.748;2023-08-31T10:59:24;3.90;;;1.90;;
72557;SDS011;60583;50.094;8.748;2023-08-31T11:01:51;4.85;;;1.80;;
72557;SDS011;60583;50.094;8.748;2023-08-31T11:04:20;4.85;;;1.85;;
72557;SDS011;60583;50.094;8.748;2023-08-31T11:09:40;4.85;;;2.30;;
72557;SDS011;60583;50.094;8.748;2023-08-31T11:12:06;4.40;;;1.85;;
72557;SDS011;60583;50.094;8.748;2023-08-31T11:14:32;5.68;;;2.10;;
72557;SDS011;60583;50.094;8.748;2023-08-31T11:16:58;4.43;;;2.25;;
72557;SDS011;60583;50.094;8.748;2023-08-31T11:19:25;5.00;;;2.58;;
72557;SDS011;60583;50.094;8.748;2023-08-31T11:21:51;5.60;;;2.30;;
72557;SDS011;60583;50.094;8.748;2023-08-31T11:24:16;4.78;;;2.00;;
72557;SDS011;60583;50.094;8.748;2023-08-31T11:26:42;4.97;;;1.90;;
72557;SDS011;60583;50.094;8.748;2023-08-31T11:29:08;4.03;;;1.83;;
72557;SDS011;60583;50.094;8.748;2023-08-31T11:31:40;4.43;;;1.63;;
72557;SDS011;60583;50.094;8.748;2023-08-31T11:34:05;4.70;;;1.60;;
72557;SDS011;60583;50.094;8.748;2023-08-31T11:36:34;4.65;;;1.45;;
72557;SDS011;60583;50.094;8.748;2023-08-31T11:39:00;4.38;;;1.88;;
72557;SDS011;60583;50.094;8.748;2023-08-31T11:41:32;4.68;;;1.60;;
72557;SDS011;60583;50.094;8.748;2023-08-31T11:43:58;4.25;;;1.42;;
72557;SDS011;60583;50.094;8.748;2023-08-31T11:46:24;4.43;;;1.80;;
72557;SDS011;60583;50.094;8.748;2023-08-31T11:48:50;5.00;;;1.90;;
72557;SDS011;60583;50.094;8.748;2023-08-31T11:51:16;4.30;;;1.70;;
72557;SDS011;60583;50.094;8.748;2023-08-31T11:53:41;4.40;;;2.00;;
72557;SDS011;60583;50.094;8.748;2023-08-31T11:56:07;5.25;;;1.85;;
72557;SDS011;60583;50.094;8.748;2023-08-31T11:58:32;5.30;;;2.10;;
72557;SDS011;60583;50.094;8.748;2023-08-31T12:00:58;3.85;;;1.80;;
72557;SDS011;60583;50.094;8.748;2023-08-31T12:03:25;4.60;;;1.80;;
72557;SDS011;60583;50.094;8.748;2023-08-31T12:05:52;4.00;;;1.63;;
72557;SDS011;60583;50.094;8.748;2023-08-31T12:08:26;5.53;;;2.63;;
72557;SDS011;60583;50.094;8.748;2023-08-31T12:10:53;5.25;;;2.40;;
72557;SDS011;60583;50.094;8.748;2023-08-31T12:13:19;4.85;;;2.25;;
72557;SDS011;60583;50.094;8.748;2023-08-31T12:15:45;3.55;;;1.33;;
72557;SDS011;60583;50.094;8.748;2023-08-31T12:18:11;4.82;;;1.90;;
72557;SDS011;60583;50.094;8.748;2023-08-31T12:20:44;5.50;;;1.73;;
72557;SDS011;60583;50.094;8.748;2023-08-31T12:23:11;5.00;;;2.00;;
72557;SDS011;60583;50.094;8.748;2023-08-31T12:25:36;6.38;;;1.63;;
72557;SDS011;60583;50.094;8.748;2023-08-31T12:28:02;5.35;;;1.90;;
72557;SDS011;60583;50.094;8.748;2023-08-31T12:30:28;4.68;;;1.90;;
72557;SDS011;60583;50.094;8.748;2023-08-31T12:32:53;4.75;;;1.80;;
72557;SDS011;60583;50.094;8.748;2023-08-31T12:35:19;5.07;;;2.20;;
72557;SDS011;60583;50.094;8.748;2023-08-31T12:37:45;4.18;;;1.60;;
72557;SDS011;60583;50.094;8.748;2023-08-31T12:40:10;4.68;;;2.05;;
72557;SDS011;60583;50.094;8.748;2023-08-31T12:42:36;4.93;;;2.00;;
72557;SDS011;60583;50.094;8.748;2023-08-31T12:45:01;4.90;;;2.00;;
72557;SDS011;60583;50.094;8.748;2023-08-31T12:47:30;3.90;;;1.73;;
72557;SDS011;60583;50.094;8.748;2023-08-31T12:49:56;3.58;;;1.67;;
72557;SDS011;60583;50.094;8.748;2023-08-31T12:52:21;3.67;;;2.03;;
72557;SDS011;60583;50.094;8.748;2023-08-31T12:54:47;6.63;;;2.00;;
72557;SDS011;60583;50.094;8.748;2023-08-31T12:57:12;5.68;;;2.30;;
72557;SDS011;60583;50.094;8.748;2023-08-31T12:59:38;4.85;;;2.00;;
72557;SDS011;60583;50.094;8.748;2023-08-31T13:02:03;4.65;;;1.60;;
72557;SDS011;60583;50.094;8.748;2023-08-31T13:04:32;5.25;;;2.05;;
72557;SDS011;60583;50.094;8.748;2023-08-31T13:06:57;4.43;;;2.05;;
72557;SDS011;60583;50.094;8.748;2023-08-31T13:09:23;4.10;;;2.00;;
72557;SDS011;60583;50.094;8.748;2023-08-31T13:11:48;3.80;;;1.63;;
72557;SDS011;60583;50.094;8.748;2023-08-31T13:14:14;5.97;;;1.90;;
72557;SDS011;60583;50.094;8.748;2023-08-31T13:16:40;3.90;;;1.65;;
72557;SDS011;60583;50.094;8.748;2023-08-31T13:19:05;6.13;;;1.70;;
72557;SDS011;60583;50.094;8.748;2023-08-31T13:21:30;4.43;;;1.70;;
72557;SDS011;60583;50.094;8.748;2023-08-31T13:23:56;4.00;;;1.63;;
72557;SDS011;60583;50.094;8.748;2023-08-31T13:26:21;4.28;;;1.75;;
72557;SDS011;60583;50.094;8.748;2023-08-31T13:28:47;4.30;;;1.67;;
72557;SDS011;60583;50.094;8.748;2023-08-31T13:31:12;3.15;;;1.40;;
72557;SDS011;60583;50.094;8.748;2023-08-31T13:33:37;3.50;;;1.60;;
72557;SDS011;60583;50.094;8.748;2023-08-31T13:36:03;3.97;;;1.60;;
72557;SDS011;60583;50.094;8.748;2023-08-31T13:38:28;4.18;;;1.35;;
72557;SDS011;60583;50.094;8.748;2023-08-31T13:40:54;4.78;;;1.30;;
72557;SDS011;60583;50.094;8.748;2023-08-31T13:43:21;3.83;;;1.75;;
72557;SDS011;60583;50.094;8.748;2023-08-31T13:45:48;3.75;;;1.48;;
72557;SDS011;60583;50.094;8.748;2023-08-31T13:48:13;4.80;;;1.70;;
72557;SDS011;60583;50.094;8.748;2023-08-31T13:50:38;3.67;;;1.45;;
72557;SDS011;60583;50.094;8.748;2023-08-31T13:53:04;3.55;;;1.50;;
72557;SDS011;60583;50.094;8.748;2023-08-31T13:55:29;4.85;;;1.60;;
72557;SDS011;60583;50.094;8.748;2023-08-31T13:58:03;4.30;;;1.70;;
72557;SDS011;60583;50.094;8.748;2023-08-31T14:00:30;3.83;;;1.60;;
72557;SDS011;60583;50.094;8.748;2023-08-31T14:02:55;3.95;;;1.90;;
72557;SDS011;60583;50.094;8.748;2023-08-31T14:05:23;3.70;;;1.52;;
72557;SDS011;60583;50.094;8.748;2023-08-31T14:07:48;4.72;;;1.73;;
72557;SDS011;60583;50.094;8.748;2023-08-31T14:10:14;3.97;;;1.75;;
72557;SDS011;60583;50.094;8.748;2023-08-31T14:12:40;4.13;;;1.83;;
72557;SDS011;60583;50.094;8.748;2023-08-31T14:15:05;4.15;;;1.73;;
72557;SDS011;60583;50.094;8.748;2023-08-31T14:17:31;4.03;;;1.55;;
72557;SDS011;60583;50.094;8.748;2023-08-31T14:19:58;4.20;;;1.60;;
72557;SDS011;60583;50.094;8.748;2023-08-31T14:22:25;5.82;;;1.95;;
72557;SDS011;60583;50.094;8.748;2023-08-31T14:24:50;4.00;;;1.70;;
72557;SDS011;60583;50.094;8.748;2023-08-31T14:27:16;4.82;;;1.67;;
72557;SDS011;60583;50.094;8.748;2023-08-31T14:29:41;5.28;;;2.15;;
72557;SDS011;60583;50.094;8.748;2023-08-31T14:32:07;3.83;;;1.70;;
72557;SDS011;60583;50.094;8.748;2023-08-31T14:34:32;5.00;;;1.88;;
72557;SDS011;60583;50.094;8.748;2023-08-31T14:36:57;4.97;;;1.83;;
72557;SDS011;60583;50.094;8.748;2023-08-31T14:39:24;4.78;;;2.00;;
72557;SDS011;60583;50.094;8.748;2023-08-31T14:41:54;6.03;;;1.70;;
72557;SDS011;60583;50.094;8.748;2023-08-31T14:44:23;5.10;;;1.30;;
72557;SDS011;60583;50.094;8.748;2023-08-31T14:46:48;4.10;;;1.48;;
72557;SDS011;60583;50.094;8.748;2023-08-31T14:49:14;4.93;;;1.60;;
72557;SDS011;60583;50.094;8.748;2023-08-31T14:51:39;5.32;;;1.83;;
72557;SDS011;60583;50.094;8.748;2023-08-31T14:54:05;5.88;;;1.88;;
72557;SDS011;60583;50.094;8.748;2023-08-31T14:56:31;5.13;;;2.00;;
72557;SDS011;60583;50.094;8.748;2023-08-31T14:58:56;5.32;;;2.08;;
72557;SDS011;60583;50.094;8.748;2023-08-31T15:01:22;4.32;;;1.63;;
72557;SDS011;60583;50.094;8.748;2023-08-31T15:03:49;5.30;;;1.75;;
72557;SDS011;60583;50.094;8.748;2023-08-31T15:06:14;4.97;;;1.75;;